< < Back
Terminal Aerodrome Forecast


Current Version              Previous Versions:   1  2  3  4  5  6  7  8  9  

Terminal Aerodrome Forecast

106
FTUS42 KGSP 291127
TAFHKY
TAF
KHKY 291127Z 2912/3012 36005KT P6SM -SHRA OVC050
     FM291500 35008KT P6SM -SHRA OVC040
      TEMPO 2915/2919 -SHRA OVC025
     FM300000 01007KT P6SM VCSH SCT030 OVC060=

Latest METAR

886
SAUS70 KWBC 291500 RRF
MTRHKY
METAR KHKY 291453Z AUTO 03005KT 10SM OVC070 22/17 A3015 RMK AO2 SLP191
60000 T02170167 50003


USA.gov is the U.S. government's official web portal to all federal, state and local government web resources and services.